createdAt,value
2018-06-21T00:01:55.500Z,99.90
2018-06-21T00:04:25.303Z,99.90
2018-06-21T00:06:54.088Z,99.90
2018-06-21T00:09:31.300Z,99.90
2018-06-21T00:12:03.295Z,99.90
2018-06-21T00:14:34.168Z,99.90
2018-06-21T00:17:04.040Z,99.90
2018-06-21T00:19:35.975Z,99.90
2018-06-21T00:22:04.876Z,99.90
2018-06-21T00:24:33.799Z,99.90
2018-06-21T00:27:02.700Z,99.90
2018-06-21T00:29:31.496Z,99.90
2018-06-21T00:32:04.644Z,99.90
2018-06-21T00:34:33.698Z,99.90
2018-06-21T00:37:02.538Z,99.90
2018-06-21T00:39:31.495Z,99.90
2018-06-21T00:42:00.478Z,99.90
2018-06-21T00:44:35.000Z,99.90
2018-06-21T00:47:12.188Z,99.90
2018-06-21T00:49:41.064Z,99.90
2018-06-21T00:52:15.571Z,99.90
2018-06-21T00:54:45.512Z,99.90
2018-06-21T00:57:14.312Z,99.90
2018-06-21T00:59:43.147Z,99.90
2018-06-21T01:02:13.144Z,99.90
2018-06-21T01:04:42.112Z,99.90
2018-06-21T01:07:10.891Z,99.90
2018-06-21T01:09:39.815Z,99.90
2018-06-21T01:12:15.888Z,99.90
2018-06-21T01:14:44.655Z,99.90
2018-06-21T01:17:17.972Z,99.90
2018-06-21T01:19:48.783Z,99.90
2018-06-21T01:22:18.584Z,99.90
2018-06-21T01:24:48.617Z,99.90
2018-06-21T01:27:23.868Z,99.90
2018-06-21T01:29:56.036Z,99.90
2018-06-21T01:32:25.843Z,99.90
2018-06-21T01:34:54.660Z,99.90
2018-06-21T01:37:25.431Z,99.90
2018-06-21T01:39:55.215Z,99.90
2018-06-21T01:42:33.659Z,99.90
2018-06-21T01:45:12.627Z,99.90
2018-06-21T01:47:45.931Z,99.90
2018-06-21T01:50:17.731Z,99.90
2018-06-21T01:52:47.508Z,99.90
2018-06-21T01:55:23.215Z,99.90
2018-06-21T01:57:55.487Z,99.90
2018-06-21T02:00:26.292Z,99.90
2018-06-21T02:02:57.076Z,99.90
2018-06-21T02:05:27.913Z,99.90
2018-06-21T02:07:56.669Z,99.90
2018-06-21T02:10:28.927Z,99.90
2018-06-21T02:13:00.804Z,99.90
2018-06-21T02:15:29.667Z,99.90
2018-06-21T02:17:59.452Z,99.90
2018-06-21T02:20:28.415Z,99.90
2018-06-21T02:22:57.443Z,99.90
2018-06-21T02:25:47.151Z,99.90
2018-06-21T02:28:21.623Z,99.90
2018-06-21T02:30:50.444Z,99.90
2018-06-21T02:33:31.476Z,99.90
2018-06-21T02:36:01.305Z,99.90
2018-06-21T02:38:30.123Z,99.90
2018-06-21T02:40:58.855Z,99.90
2018-06-21T02:43:28.692Z,99.90
2018-06-21T02:45:57.444Z,99.90
2018-06-21T02:48:28.172Z,99.90
2018-06-21T02:50:56.911Z,99.90
2018-06-21T02:53:29.579Z,99.90
2018-06-21T02:55:59.436Z,99.90
2018-06-21T02:58:37.868Z,99.90
2018-06-21T03:01:12.267Z,99.90
2018-06-21T03:03:41.119Z,99.90
2018-06-21T03:06:12.100Z,99.90
2018-06-21T03:08:43.027Z,99.90
2018-06-21T03:11:11.919Z,99.90
2018-06-21T03:13:40.880Z,99.90
2018-06-21T03:16:13.487Z,99.90
2018-06-21T03:18:42.475Z,99.90
2018-06-21T03:21:12.460Z,99.90
2018-06-21T03:23:41.291Z,99.90
2018-06-21T03:26:10.199Z,99.90
2018-06-21T03:28:42.655Z,99.90
2018-06-21T03:31:32.644Z,99.90
2018-06-21T03:34:03.491Z,99.90
2018-06-21T03:36:32.335Z,99.90
2018-06-21T03:39:01.064Z,99.90
2018-06-21T03:41:46.832Z,99.90
2018-06-21T03:44:16.866Z,99.90
2018-06-21T03:46:47.688Z,99.90
2018-06-21T03:49:16.551Z,99.90
2018-06-21T03:51:46.343Z,99.90
2018-06-21T03:54:16.187Z,99.90
2018-06-21T03:56:44.935Z,99.90
2018-06-21T03:59:13.703Z,99.90
2018-06-21T04:01:49.451Z,99.90
2018-06-21T04:04:19.311Z,99.90
2018-06-21T04:06:48.111Z,99.90
2018-06-21T04:09:18.963Z,99.90
2018-06-21T04:11:47.855Z,99.90
2018-06-21T04:14:16.716Z,99.90
2018-06-21T04:16:46.451Z,99.90
2018-06-21T04:19:17.256Z,99.90
2018-06-21T04:21:51.200Z,99.90
2018-06-21T04:24:20.086Z,99.90
2018-06-21T04:26:53.335Z,99.90
2018-06-21T04:29:23.156Z,99.90
2018-06-21T04:31:55.796Z,99.90
2018-06-21T04:34:26.603Z,99.90
2018-06-21T04:42:19.498Z,99.90
2018-06-21T04:44:48.327Z,99.90
2018-06-21T04:47:18.140Z,99.90
2018-06-21T04:49:46.931Z,99.90
2018-06-21T04:52:15.680Z,99.90
2018-06-21T04:54:50.311Z,99.90
2018-06-21T04:57:21.099Z,99.90
2018-06-21T04:59:49.826Z,99.90
2018-06-21T05:02:25.383Z,99.90
2018-06-21T05:04:55.231Z,99.90
2018-06-21T05:07:42.623Z,99.90
2018-06-21T05:10:14.347Z,99.90
2018-06-21T05:12:43.219Z,99.90
2018-06-21T05:15:15.375Z,99.90
2018-06-21T05:17:46.195Z,99.90
2018-06-21T05:20:26.607Z,99.90
2018-06-21T05:22:55.326Z,99.90
2018-06-21T05:25:30.004Z,99.90
2018-06-21T05:28:05.459Z,99.90
2018-06-21T05:30:38.323Z,99.90
2018-06-21T05:33:09.071Z,99.90
2018-06-21T05:35:39.827Z,99.90
2018-06-21T05:38:09.571Z,99.90
2018-06-21T05:40:46.495Z,97.60
2018-06-21T05:43:19.055Z,95.60
2018-06-21T05:45:47.822Z,94.70
2018-06-21T05:48:24.235Z,94.00
2018-06-21T05:50:53.074Z,93.10
2018-06-21T05:53:22.834Z,90.20
2018-06-21T05:55:52.599Z,82.10
2018-06-21T05:58:31.771Z,81.90
2018-06-21T06:01:03.535Z,78.60
2018-06-21T06:03:54.439Z,80.10
2018-06-21T06:06:31.387Z,79.60
2018-06-21T06:09:20.948Z,79.60
2018-06-21T06:11:51.810Z,77.40
2018-06-21T06:14:27.475Z,80.60
2018-06-21T06:16:57.290Z,79.20
2018-06-21T06:19:27.060Z,78.10
2018-06-21T06:21:56.815Z,81.70
2018-06-21T06:24:25.530Z,83.60
2018-06-21T06:26:55.251Z,80.90
2018-06-21T06:29:27.473Z,78.90
2018-06-21T06:31:57.276Z,78.90
2018-06-21T06:36:58.311Z,68.40
2018-06-21T06:39:28.143Z,65.10
2018-06-21T06:41:56.866Z,64.50
2018-06-21T06:44:37.035Z,63.20
2018-06-21T06:47:06.808Z,63.20
2018-06-21T06:49:36.554Z,64.80
2018-06-21T06:52:09.999Z,66.00
2018-06-21T06:54:39.786Z,62.60
2018-06-21T06:57:10.527Z,62.40
2018-06-21T06:59:52.154Z,61.40
2018-06-21T07:02:22.879Z,61.40
2018-06-21T07:04:51.739Z,60.10
2018-06-21T07:07:39.008Z,59.70
2018-06-21T07:10:09.799Z,58.30
2018-06-21T07:15:13.183Z,56.20
2018-06-21T07:17:45.366Z,57.00
2018-06-21T07:20:14.372Z,57.60
2018-06-21T07:22:43.235Z,53.60
2018-06-21T07:25:12.075Z,52.90
2018-06-21T07:27:40.959Z,52.60
2018-06-21T07:30:09.893Z,50.00
2018-06-21T07:32:50.755Z,49.50
2018-06-21T07:35:23.099Z,48.00
2018-06-21T07:37:56.894Z,48.70
2018-06-21T07:40:26.047Z,49.70
2018-06-21T07:42:54.791Z,51.40
2018-06-21T07:45:23.643Z,51.80
2018-06-21T07:47:53.363Z,50.40
2018-06-21T07:50:40.915Z,49.70
2018-06-21T07:53:11.738Z,49.70
2018-06-21T07:55:48.247Z,49.60
2018-06-21T07:58:17.219Z,48.70
2018-06-21T08:00:48.115Z,47.40
2018-06-21T08:03:16.871Z,47.30
2018-06-21T08:05:50.067Z,47.30
2018-06-21T08:08:18.790Z,47.60
2018-06-21T08:10:57.069Z,48.50
2018-06-21T08:13:25.851Z,49.80
2018-06-21T08:15:57.931Z,50.50
2018-06-21T08:18:26.695Z,50.80
2018-06-21T08:20:55.494Z,50.60
2018-06-21T08:23:25.306Z,48.10
2018-06-21T08:25:55.042Z,48.40
2018-06-21T08:28:26.998Z,48.00
2018-06-21T08:31:14.958Z,46.50
2018-06-21T08:33:44.879Z,45.70
2018-06-21T08:36:15.683Z,46.10
2018-06-21T08:38:44.516Z,45.40
2018-06-21T08:41:16.638Z,44.40
2018-06-21T08:43:51.183Z,44.10
2018-06-21T08:46:20.898Z,43.10
2018-06-21T08:48:49.743Z,42.90
2018-06-21T08:51:19.597Z,43.80
2018-06-21T08:53:48.438Z,44.70
2018-06-21T08:56:18.299Z,45.60
2018-06-21T08:58:48.239Z,45.00
2018-06-21T09:01:18.982Z,45.80
2018-06-21T09:03:54.632Z,46.00
2018-06-21T09:06:23.287Z,45.80
2018-06-21T09:08:53.018Z,44.80
2018-06-21T09:11:21.730Z,43.70
2018-06-21T09:13:51.427Z,43.40
2018-06-21T09:16:25.154Z,44.60
2018-06-21T09:19:00.547Z,45.80
2018-06-21T09:21:29.383Z,45.20
2018-06-21T09:23:58.154Z,46.20
2018-06-21T09:26:31.922Z,47.10
2018-06-21T09:29:01.647Z,46.60
2018-06-21T09:31:30.455Z,45.40
2018-06-21T09:33:59.174Z,44.50
2018-06-21T09:36:34.250Z,45.40
2018-06-21T09:39:14.726Z,44.70
2018-06-21T09:41:50.196Z,43.30
2018-06-21T09:44:24.406Z,42.00
2018-06-21T09:46:58.561Z,41.40
2018-06-21T09:49:40.075Z,40.60
2018-06-21T09:52:22.957Z,39.00
2018-06-21T09:54:52.655Z,38.20
2018-06-21T09:57:26.599Z,37.40
2018-06-21T09:59:58.535Z,39.50
2018-06-21T10:02:27.298Z,41.10
2018-06-21T10:04:59.215Z,43.20
2018-06-21T10:07:28.054Z,44.70
2018-06-21T10:09:57.798Z,46.10
2018-06-21T10:12:29.935Z,43.20
2018-06-21T10:14:58.651Z,43.10
2018-06-21T10:17:41.352Z,42.70
2018-06-21T10:20:17.610Z,39.70
2018-06-21T10:22:50.077Z,38.60
2018-06-21T10:25:19.802Z,38.20
2018-06-21T10:27:51.631Z,38.30
2018-06-21T10:30:23.811Z,39.70
2018-06-21T10:32:54.059Z,39.30
2018-06-21T10:35:22.931Z,36.30
2018-06-21T10:37:52.135Z,35.60
2018-06-21T10:40:32.803Z,36.70
2018-06-21T10:43:07.258Z,37.40
2018-06-21T10:45:41.070Z,38.80
2018-06-21T10:48:11.794Z,37.60
2018-06-21T10:50:49.882Z,38.90
2018-06-21T10:53:29.067Z,38.40
2018-06-21T10:55:57.866Z,38.20
2018-06-21T10:58:39.402Z,37.60
2018-06-21T11:01:10.179Z,37.30
2018-06-21T11:03:40.907Z,38.50
2018-06-21T11:06:09.714Z,38.00
2018-06-21T11:08:39.559Z,37.20
2018-06-21T11:11:08.278Z,36.20
2018-06-21T11:13:37.146Z,33.90
2018-06-21T11:16:20.258Z,35.50
2018-06-21T11:18:51.266Z,36.70
2018-06-21T11:21:21.034Z,36.80
2018-06-21T11:23:57.530Z,37.70
2018-06-21T11:26:38.238Z,39.40
2018-06-21T11:29:12.242Z,41.00
2018-06-21T11:31:43.976Z,40.40
2018-06-21T11:34:15.770Z,41.00
2018-06-21T11:36:44.618Z,40.30
2018-06-21T11:39:16.686Z,40.70
2018-06-21T11:41:57.312Z,37.10
2018-06-21T11:44:26.185Z,34.20
2018-06-21T11:46:58.334Z,31.90
2018-06-21T11:49:27.140Z,30.30
2018-06-21T11:51:59.874Z,31.70
2018-06-21T11:54:34.250Z,32.00
2018-06-21T11:57:07.818Z,33.40
2018-06-21T11:59:45.706Z,35.10
2018-06-21T12:02:17.482Z,34.80
2018-06-21T12:04:47.298Z,35.40
2018-06-21T12:07:16.058Z,35.90
2018-06-21T12:09:46.896Z,36.30
2018-06-21T12:12:26.763Z,34.80
2018-06-21T12:14:56.906Z,35.30
2018-06-21T12:17:25.658Z,35.20
2018-06-21T12:19:57.238Z,32.60
2018-06-21T12:22:26.086Z,32.80
2018-06-21T12:24:56.158Z,33.50
2018-06-21T12:27:26.890Z,34.40
2018-06-21T12:32:27.898Z,37.40
2018-06-21T12:34:58.639Z,35.70
2018-06-21T12:37:29.422Z,37.10
2018-06-21T12:39:58.178Z,35.10
2018-06-21T12:45:08.922Z,36.30
2018-06-21T12:47:37.690Z,36.90
2018-06-21T12:50:09.582Z,36.50
2018-06-21T12:52:45.834Z,34.60
2018-06-21T12:55:18.243Z,33.60
2018-06-21T12:57:50.110Z,33.00
2018-06-21T13:03:05.342Z,31.20
2018-06-21T13:05:34.055Z,30.80
2018-06-21T13:08:10.510Z,33.20
2018-06-21T13:10:53.792Z,34.70
2018-06-21T13:13:25.122Z,35.20
2018-06-21T13:15:53.907Z,34.50
2018-06-21T13:18:42.884Z,34.80
2018-06-21T13:21:11.774Z,35.40
2018-06-21T13:23:44.314Z,35.80
2018-06-21T13:26:13.086Z,34.60
2018-06-21T13:28:42.922Z,35.50
2018-06-21T13:31:12.752Z,34.70
2018-06-21T13:33:43.618Z,34.00
2018-06-21T13:36:17.348Z,34.90
2018-06-21T13:38:51.249Z,34.80
2018-06-21T13:41:25.649Z,35.70
2018-06-21T13:43:54.525Z,34.40
2018-06-21T13:46:31.273Z,33.10
2018-06-21T13:49:03.422Z,33.60
2018-06-21T13:51:41.973Z,34.20
2018-06-21T13:54:16.749Z,36.30
2018-06-21T13:56:51.533Z,37.20
2018-06-21T13:59:22.274Z,38.20
2018-06-21T14:01:54.869Z,38.70
2018-06-21T14:04:30.893Z,37.80
2018-06-21T14:07:00.637Z,38.70
2018-06-21T14:09:33.109Z,39.40
2018-06-21T14:12:01.894Z,40.10
2018-06-21T14:14:38.152Z,39.20
2018-06-21T14:17:07.009Z,39.20
2018-06-21T14:19:39.414Z,40.00
2018-06-21T14:22:13.713Z,40.90
2018-06-21T14:24:44.517Z,41.90
2018-06-21T14:27:13.325Z,43.10
2018-06-21T14:29:58.567Z,42.30
2018-06-21T14:32:29.253Z,41.20
2018-06-21T14:34:59.005Z,40.80
2018-06-21T14:37:34.509Z,38.90
2018-06-21T14:40:08.374Z,38.30
2018-06-21T14:42:41.146Z,37.40
2018-06-21T14:45:09.921Z,40.60
2018-06-21T14:47:58.374Z,43.30
2018-06-21T14:50:55.006Z,45.50
2018-06-21T14:53:30.534Z,46.50
2018-06-21T14:55:59.238Z,47.40
2018-06-21T14:58:31.118Z,48.40
2018-06-21T15:01:11.038Z,49.70
2018-06-21T15:03:46.912Z,51.10
2018-06-21T15:06:21.286Z,52.70
2018-06-21T15:08:58.543Z,53.60
2018-06-21T15:11:28.297Z,53.10
2018-06-21T15:13:57.105Z,53.00
2018-06-21T15:16:25.857Z,52.30
2018-06-21T15:18:58.626Z,50.60
2018-06-21T15:21:37.249Z,50.30
2018-06-21T15:24:07.005Z,51.30
2018-06-21T15:26:44.133Z,51.80
2018-06-21T15:29:13.498Z,51.10
2018-06-21T15:31:42.231Z,50.40
2018-06-21T15:34:11.054Z,49.20
2018-06-21T15:36:41.750Z,48.80
2018-06-21T15:39:27.914Z,49.00
2018-06-21T15:41:59.846Z,48.30
2018-06-21T15:44:41.009Z,50.10
2018-06-21T15:47:12.865Z,49.70
2018-06-21T15:49:43.605Z,50.50
2018-06-21T15:52:14.313Z,50.80
2018-06-21T15:54:55.340Z,50.80
2018-06-21T16:00:18.737Z,53.30
2018-06-21T16:02:53.669Z,53.90
2018-06-21T16:08:16.125Z,54.00
2018-06-21T16:10:52.597Z,53.80
2018-06-21T16:13:26.770Z,53.90
2018-06-21T16:15:55.639Z,53.30
2018-06-21T16:18:41.320Z,54.00
2018-06-21T16:21:10.064Z,53.80
2018-06-21T16:23:48.687Z,53.50
2018-06-21T16:26:23.773Z,54.60
2018-06-21T16:28:53.041Z,54.90
2018-06-21T16:33:59.984Z,53.20
2018-06-21T16:36:39.680Z,53.10
2018-06-21T16:39:09.652Z,53.80
2018-06-21T16:41:38.452Z,54.00
2018-06-21T16:44:07.229Z,54.80
2018-06-21T16:46:36.949Z,54.90
2018-06-21T16:49:05.779Z,55.30
2018-06-21T16:51:40.029Z,55.80
2018-06-21T16:54:10.773Z,56.30
2018-06-21T16:56:44.388Z,57.50
2018-06-21T16:59:18.399Z,62.30
2018-06-21T17:01:48.222Z,66.80
2018-06-21T17:04:19.033Z,72.80
2018-06-21T17:06:47.984Z,74.70
2018-06-21T17:09:20.108Z,77.60
2018-06-21T17:11:55.649Z,75.20
2018-06-21T17:14:24.373Z,73.80
2018-06-21T17:16:53.467Z,69.30
2018-06-21T17:19:25.707Z,68.30
2018-06-21T17:21:54.589Z,65.70
2018-06-21T17:24:26.668Z,56.30
2018-06-21T17:27:00.444Z,56.10
2018-06-21T17:29:29.260Z,53.00
2018-06-21T17:32:02.213Z,53.00
2018-06-21T17:34:32.960Z,53.10
2018-06-21T17:37:05.271Z,52.40
2018-06-21T17:39:47.000Z,50.60
2018-06-21T17:42:20.408Z,49.00
2018-06-21T17:44:49.825Z,47.70
2018-06-21T17:47:26.356Z,45.70
2018-06-21T17:49:59.781Z,45.30
2018-06-21T17:52:41.941Z,43.60
2018-06-21T17:55:29.040Z,43.40
2018-06-21T18:00:47.037Z,43.00
2018-06-21T18:03:15.829Z,43.00
2018-06-21T18:05:47.804Z,42.30
2018-06-21T18:08:20.813Z,41.60
2018-06-21T18:10:53.873Z,41.80
2018-06-21T18:13:22.681Z,42.80
2018-06-21T18:16:03.604Z,43.20
2018-06-21T18:18:39.957Z,43.10
2018-06-21T18:21:08.820Z,44.10
2018-06-21T18:23:41.420Z,43.80
2018-06-21T18:26:10.256Z,42.70
2018-06-21T18:28:43.310Z,42.20
2018-06-21T18:31:18.120Z,41.40
2018-06-21T18:33:59.004Z,40.80
2018-06-21T18:36:27.980Z,41.40
2018-06-21T18:38:57.193Z,41.00
2018-06-21T18:41:26.025Z,40.70
2018-06-21T18:44:00.660Z,40.40
2018-06-21T18:46:32.604Z,40.30
2018-06-21T18:49:01.938Z,40.30
2018-06-21T18:51:30.698Z,40.80
2018-06-21T18:54:00.596Z,40.00
2018-06-21T18:56:42.017Z,40.50
2018-06-21T18:59:14.272Z,40.30
2018-06-21T19:01:48.060Z,41.00
2018-06-21T19:04:17.988Z,40.60
2018-06-21T19:06:56.436Z,40.90
2018-06-21T19:12:01.752Z,41.40
2018-06-21T19:14:40.626Z,41.70
2018-06-21T19:20:08.697Z,42.20
2018-06-21T19:25:12.091Z,42.70
2018-06-21T19:27:47.874Z,43.10
2018-06-21T19:30:21.625Z,43.10
2018-06-21T19:32:55.428Z,43.30
2018-06-21T19:35:38.220Z,43.30
2018-06-21T19:38:07.072Z,43.60
2018-06-21T19:40:43.544Z,43.60
2018-06-21T19:45:44.060Z,43.50
2018-06-21T19:48:12.801Z,43.50
2018-06-21T19:50:43.596Z,43.70
2018-06-21T19:53:12.384Z,43.50
2018-06-21T19:55:42.165Z,43.40
2018-06-21T19:58:18.236Z,43.40
2018-06-21T20:00:54.136Z,43.00
2018-06-21T20:03:23.848Z,42.80
2018-06-21T20:05:58.081Z,41.60
2018-06-21T20:08:36.788Z,41.40
2018-06-21T20:11:15.724Z,41.00
2018-06-21T20:13:46.360Z,40.30
2018-06-21T20:16:15.491Z,40.20
2018-06-21T20:18:47.318Z,40.20
2018-06-21T20:21:22.452Z,40.20
2018-06-21T20:23:54.404Z,40.20
2018-06-21T20:26:26.336Z,40.30
2018-06-21T20:28:56.064Z,40.30
2018-06-21T20:31:25.872Z,40.30
2018-06-21T20:33:57.720Z,40.70
2018-06-21T20:36:29.692Z,40.80
2018-06-21T20:38:59.524Z,40.80
2018-06-21T20:41:29.317Z,40.80
2018-06-21T20:46:32.144Z,40.30
2018-06-21T20:49:01.861Z,40.50
2018-06-21T20:51:38.544Z,40.40
2018-06-21T20:54:12.796Z,40.60
2018-06-21T20:56:43.059Z,40.70
2018-06-21T21:01:40.320Z,41.10
2018-06-21T21:04:10.060Z,41.40
2018-06-21T21:09:10.274Z,41.40
2018-06-21T21:11:45.276Z,41.70
2018-06-21T21:16:44.400Z,42.20
2018-06-21T21:19:13.232Z,42.00
2018-06-21T21:21:53.396Z,41.90
2018-06-21T21:24:25.920Z,42.20
2018-06-21T21:27:00.031Z,42.20
2018-06-21T21:29:28.764Z,42.30
2018-06-21T21:31:58.499Z,42.10
2018-06-21T21:34:30.347Z,42.30
2018-06-21T21:37:01.056Z,42.50
2018-06-21T21:39:40.906Z,42.70
2018-06-21T21:42:11.600Z,42.90
2018-06-21T21:44:40.524Z,43.10
2018-06-21T21:47:09.268Z,43.40
2018-06-21T21:49:43.149Z,43.80
2018-06-21T21:52:17.312Z,44.00
2018-06-21T21:54:50.395Z,44.10
2018-06-21T21:57:20.324Z,44.30
2018-06-21T21:59:59.851Z,44.10
2018-06-21T22:02:35.904Z,44.20
2018-06-21T22:05:06.357Z,44.50
2018-06-21T22:07:35.080Z,44.60
2018-06-21T22:10:10.552Z,44.90
2018-06-21T22:12:40.320Z,44.90
2018-06-21T22:15:14.424Z,44.90
2018-06-21T22:18:00.376Z,44.60
2018-06-21T22:20:34.272Z,44.10
2018-06-21T22:23:03.016Z,44.00
2018-06-21T22:25:35.132Z,43.70
2018-06-21T22:28:16.327Z,43.50
2018-06-21T22:30:47.104Z,43.60
2018-06-21T22:33:16.980Z,43.80
2018-06-21T22:36:01.872Z,43.80
2018-06-21T22:38:38.168Z,44.00
2018-06-21T22:43:37.315Z,44.50
2018-06-21T22:46:06.736Z,44.90
2018-06-21T22:48:38.947Z,45.10
2018-06-21T22:54:05.197Z,45.10
2018-06-21T22:56:37.383Z,45.30
2018-06-21T22:59:06.275Z,45.40
2018-06-21T23:01:35.117Z,45.80
2018-06-21T23:04:15.528Z,45.60
2018-06-21T23:06:44.364Z,45.70
2018-06-21T23:09:18.200Z,46.30
2018-06-21T23:11:54.684Z,46.80
2018-06-21T23:19:37.051Z,48.80
2018-06-21T23:22:09.544Z,49.30
2018-06-21T23:24:40.399Z,49.50
2018-06-21T23:27:11.152Z,49.50
2018-06-21T23:29:51.600Z,49.90
2018-06-21T23:32:20.336Z,50.30
2018-06-21T23:34:50.075Z,50.50
2018-06-21T23:37:18.814Z,50.80
2018-06-21T23:40:00.833Z,51.30
2018-06-21T23:42:37.400Z,52.50
2018-06-21T23:45:13.919Z,52.90
2018-06-21T23:47:42.715Z,53.00
2018-06-21T23:53:01.576Z,53.60
2018-06-21T23:55:32.396Z,54.00
2018-06-21T23:58:03.159Z,54.50
